sensor_id;sensor_type;location;lat;lon;timestamp;P1;durP1;ratioP1;P2;durP2;ratioP2
75963;SDS011;65820;44.726;37.764;2022-12-05T00:26:37;1.63;;;0.52;;
75963;SDS011;65820;44.726;37.764;2022-12-05T00:27:38;1.90;;;0.52;;
75963;SDS011;65820;44.726;37.764;2022-12-05T00:28:40;2.20;;;0.60;;
75963;SDS011;65820;44.726;37.764;2022-12-05T00:37:28;2.90;;;0.90;;
75963;SDS011;65820;44.726;37.764;2022-12-05T01:19:16;4.25;;;1.50;;
75963;SDS011;65820;44.726;37.764;2022-12-05T01:47:30;4.72;;;1.20;;
75963;SDS011;65820;44.726;37.764;2022-12-05T01:48:35;4.40;;;1.20;;
75963;SDS011;65820;44.726;37.764;2022-12-05T01:56:58;3.00;;;1.40;;
75963;SDS011;65820;44.726;37.764;2022-12-05T01:59:23;3.60;;;1.00;;
75963;SDS011;65820;44.726;37.764;2022-12-05T03:02:52;1.60;;;0.70;;
75963;SDS011;65820;44.726;37.764;2022-12-05T03:26:37;3.78;;;1.55;;
75963;SDS011;65820;44.726;37.764;2022-12-05T03:28:10;4.70;;;1.30;;
75963;SDS011;65820;44.726;37.764;2022-12-05T03:29:41;3.17;;;1.10;;
75963;SDS011;65820;44.726;37.764;2022-12-05T03:30:51;3.15;;;1.00;;
75963;SDS011;65820;44.726;37.764;2022-12-05T03:33:37;3.67;;;1.10;;
75963;SDS011;65820;44.726;37.764;2022-12-05T03:36:21;3.55;;;1.33;;
75963;SDS011;65820;44.726;37.764;2022-12-05T03:40:31;2.92;;;1.30;;
75963;SDS011;65820;44.726;37.764;2022-12-05T03:50:45;3.67;;;1.00;;
75963;SDS011;65820;44.726;37.764;2022-12-05T03:51:54;3.38;;;1.13;;
75963;SDS011;65820;44.726;37.764;2022-12-05T03:53:06;4.47;;;1.05;;
75963;SDS011;65820;44.726;37.764;2022-12-05T03:55:09;3.00;;;1.10;;
75963;SDS011;65820;44.726;37.764;2022-12-05T04:02:57;1.52;;;0.88;;
75963;SDS011;65820;44.726;37.764;2022-12-05T04:04:04;3.85;;;1.08;;
75963;SDS011;65820;44.726;37.764;2022-12-05T04:06:28;4.93;;;1.30;;
75963;SDS011;65820;44.726;37.764;2022-12-05T04:07:33;3.40;;;1.25;;
75963;SDS011;65820;44.726;37.764;2022-12-05T04:14:00;3.47;;;1.30;;
75963;SDS011;65820;44.726;37.764;2022-12-05T04:15:09;4.13;;;1.30;;
75963;SDS011;65820;44.726;37.764;2022-12-05T04:16:22;4.25;;;1.30;;
75963;SDS011;65820;44.726;37.764;2022-12-05T04:17:56;2.83;;;1.30;;
75963;SDS011;65820;44.726;37.764;2022-12-05T04:51:52;2.97;;;1.08;;
75963;SDS011;65820;44.726;37.764;2022-12-05T05:02:17;1.67;;;0.65;;
75963;SDS011;65820;44.726;37.764;2022-12-05T05:03:43;2.67;;;0.70;;
75963;SDS011;65820;44.726;37.764;2022-12-05T05:08:22;3.42;;;1.10;;
75963;SDS011;65820;44.726;37.764;2022-12-05T05:16:55;2.05;;;0.73;;
75963;SDS011;65820;44.726;37.764;2022-12-05T05:17:57;3.47;;;0.73;;
75963;SDS011;65820;44.726;37.764;2022-12-05T05:18:58;2.38;;;0.85;;
75963;SDS011;65820;44.726;37.764;2022-12-05T05:20:00;2.33;;;0.82;;
75963;SDS011;65820;44.726;37.764;2022-12-05T05:21:25;1.33;;;0.63;;
75963;SDS011;65820;44.726;37.764;2022-12-05T05:22:30;2.33;;;0.80;;
75963;SDS011;65820;44.726;37.764;2022-12-05T05:23:31;4.00;;;0.98;;
75963;SDS011;65820;44.726;37.764;2022-12-05T05:25:43;2.28;;;0.80;;
75963;SDS011;65820;44.726;37.764;2022-12-05T05:26:45;3.45;;;0.80;;
75963;SDS011;65820;44.726;37.764;2022-12-05T05:27:46;2.20;;;0.80;;
75963;SDS011;65820;44.726;37.764;2022-12-05T05:46:10;6.44;;;1.52;;
75963;SDS011;65820;44.726;37.764;2022-12-05T05:47:12;2.75;;;0.80;;
75963;SDS011;65820;44.726;37.764;2022-12-05T05:48:13;4.60;;;1.20;;
75963;SDS011;65820;44.726;37.764;2022-12-05T05:49:14;7.03;;;1.13;;
75963;SDS011;65820;44.726;37.764;2022-12-05T05:51:04;2.80;;;1.10;;
75963;SDS011;65820;44.726;37.764;2022-12-05T05:52:07;7.22;;;1.30;;
75963;SDS011;65820;44.726;37.764;2022-12-05T05:53:08;4.45;;;1.48;;
75963;SDS011;65820;44.726;37.764;2022-12-05T05:54:09;5.03;;;1.20;;
75963;SDS011;65820;44.726;37.764;2022-12-05T05:55:11;6.03;;;1.10;;
75963;SDS011;65820;44.726;37.764;2022-12-05T06:00:18;3.83;;;1.25;;
75963;SDS011;65820;44.726;37.764;2022-12-05T06:01:20;4.38;;;1.20;;
75963;SDS011;65820;44.726;37.764;2022-12-05T06:16:01;7.18;;;1.42;;
75963;SDS011;65820;44.726;37.764;2022-12-05T06:18:05;2.97;;;1.02;;
75963;SDS011;65820;44.726;37.764;2022-12-05T06:19:07;3.33;;;1.40;;
75963;SDS011;65820;44.726;37.764;2022-12-05T06:20:08;5.28;;;1.50;;
75963;SDS011;65820;44.726;37.764;2022-12-05T06:31:25;4.75;;;1.55;;
75963;SDS011;65820;44.726;37.764;2022-12-05T06:33:19;6.28;;;2.03;;
75963;SDS011;65820;44.726;37.764;2022-12-05T06:34:20;5.38;;;1.70;;
75963;SDS011;65820;44.726;37.764;2022-12-05T06:37:14;7.07;;;2.20;;
75963;SDS011;65820;44.726;37.764;2022-12-05T06:40:57;6.90;;;2.00;;
75963;SDS011;65820;44.726;37.764;2022-12-05T06:52:02;7.70;;;1.73;;
75963;SDS011;65820;44.726;37.764;2022-12-05T06:53:03;4.72;;;1.65;;
75963;SDS011;65820;44.726;37.764;2022-12-05T06:58:54;5.28;;;1.90;;
75963;SDS011;65820;44.726;37.764;2022-12-05T07:12:43;5.05;;;1.85;;
75963;SDS011;65820;44.726;37.764;2022-12-05T07:13:44;5.80;;;2.22;;
75963;SDS011;65820;44.726;37.764;2022-12-05T07:18:29;4.72;;;1.90;;
75963;SDS011;65820;44.726;37.764;2022-12-05T07:19:30;4.18;;;1.75;;
75963;SDS011;65820;44.726;37.764;2022-12-05T07:20:32;5.75;;;2.10;;
75963;SDS011;65820;44.726;37.764;2022-12-05T07:21:33;4.50;;;1.90;;
75963;SDS011;65820;44.726;37.764;2022-12-05T07:22:35;5.05;;;1.90;;
75963;SDS011;65820;44.726;37.764;2022-12-05T07:23:36;4.53;;;1.90;;
75963;SDS011;65820;44.726;37.764;2022-12-05T07:24:38;5.30;;;1.60;;
75963;SDS011;65820;44.726;37.764;2022-12-05T07:25:39;6.47;;;1.73;;
75963;SDS011;65820;44.726;37.764;2022-12-05T07:28:46;3.47;;;1.50;;
75963;SDS011;65820;44.726;37.764;2022-12-05T07:29:48;3.80;;;1.48;;
75963;SDS011;65820;44.726;37.764;2022-12-05T07:30:59;4.60;;;1.70;;
75963;SDS011;65820;44.726;37.764;2022-12-05T07:32:01;4.47;;;1.60;;
75963;SDS011;65820;44.726;37.764;2022-12-05T07:33:03;4.72;;;1.73;;
75963;SDS011;65820;44.726;37.764;2022-12-05T07:34:04;4.70;;;1.92;;
75963;SDS011;65820;44.726;37.764;2022-12-05T07:35:06;6.05;;;1.77;;
75963;SDS011;65820;44.726;37.764;2022-12-05T07:36:09;6.28;;;1.90;;
75963;SDS011;65820;44.726;37.764;2022-12-05T07:37:12;4.57;;;1.55;;
75963;SDS011;65820;44.726;37.764;2022-12-05T07:38:13;5.53;;;1.92;;
75963;SDS011;65820;44.726;37.764;2022-12-05T07:39:15;4.70;;;1.63;;
75963;SDS011;65820;44.726;37.764;2022-12-05T07:41:15;4.80;;;2.13;;
75963;SDS011;65820;44.726;37.764;2022-12-05T07:42:21;4.30;;;1.83;;
75963;SDS011;65820;44.726;37.764;2022-12-05T07:43:22;5.55;;;1.85;;
75963;SDS011;65820;44.726;37.764;2022-12-05T07:44:24;5.13;;;1.85;;
75963;SDS011;65820;44.726;37.764;2022-12-05T07:45:25;7.40;;;1.90;;
75963;SDS011;65820;44.726;37.764;2022-12-05T07:46:27;5.63;;;1.90;;
75963;SDS011;65820;44.726;37.764;2022-12-05T07:47:29;4.10;;;1.63;;
75963;SDS011;65820;44.726;37.764;2022-12-05T07:48:31;4.47;;;1.88;;
75963;SDS011;65820;44.726;37.764;2022-12-05T07:49:32;6.78;;;2.28;;
75963;SDS011;65820;44.726;37.764;2022-12-05T07:50:35;5.45;;;2.03;;
75963;SDS011;65820;44.726;37.764;2022-12-05T07:51:37;4.85;;;1.90;;
75963;SDS011;65820;44.726;37.764;2022-12-05T07:52:38;5.88;;;2.20;;
75963;SDS011;65820;44.726;37.764;2022-12-05T07:53:40;4.82;;;1.88;;
75963;SDS011;65820;44.726;37.764;2022-12-05T07:54:43;4.88;;;2.10;;
75963;SDS011;65820;44.726;37.764;2022-12-05T07:55:44;5.10;;;1.90;;
75963;SDS011;65820;44.726;37.764;2022-12-05T07:56:46;4.80;;;2.00;;
75963;SDS011;65820;44.726;37.764;2022-12-05T07:57:47;5.72;;;1.70;;
75963;SDS011;65820;44.726;37.764;2022-12-05T07:58:49;5.43;;;1.83;;
75963;SDS011;65820;44.726;37.764;2022-12-05T08:02:55;5.00;;;1.63;;
75963;SDS011;65820;44.726;37.764;2022-12-05T08:03:57;4.57;;;1.40;;
75963;SDS011;65820;44.726;37.764;2022-12-05T08:04:59;4.40;;;1.45;;
75963;SDS011;65820;44.726;37.764;2022-12-05T08:06:01;3.85;;;1.65;;
75963;SDS011;65820;44.726;37.764;2022-12-05T08:07:04;3.58;;;1.55;;
75963;SDS011;65820;44.726;37.764;2022-12-05T08:08:06;4.80;;;1.70;;
75963;SDS011;65820;44.726;37.764;2022-12-05T08:09:07;4.40;;;1.60;;
75963;SDS011;65820;44.726;37.764;2022-12-05T08:10:09;3.83;;;1.77;;
75963;SDS011;65820;44.726;37.764;2022-12-05T08:11:12;5.82;;;1.88;;
75963;SDS011;65820;44.726;37.764;2022-12-05T08:12:15;5.65;;;1.67;;
75963;SDS011;65820;44.726;37.764;2022-12-05T08:13:16;4.88;;;2.03;;
75963;SDS011;65820;44.726;37.764;2022-12-05T08:14:18;4.60;;;1.60;;
75963;SDS011;65820;44.726;37.764;2022-12-05T08:15:20;4.18;;;1.42;;
75963;SDS011;65820;44.726;37.764;2022-12-05T08:16:22;7.20;;;1.85;;
75963;SDS011;65820;44.726;37.764;2022-12-05T08:17:27;6.38;;;1.63;;
75963;SDS011;65820;44.726;37.764;2022-12-05T08:18:29;5.53;;;1.90;;
75963;SDS011;65820;44.726;37.764;2022-12-05T08:19:31;5.63;;;1.88;;
75963;SDS011;65820;44.726;37.764;2022-12-05T08:20:32;4.28;;;1.50;;
75963;SDS011;65820;44.726;37.764;2022-12-05T08:21:34;6.45;;;1.73;;
75963;SDS011;65820;44.726;37.764;2022-12-05T08:22:35;4.85;;;1.60;;
75963;SDS011;65820;44.726;37.764;2022-12-05T08:23:38;5.47;;;1.70;;
75963;SDS011;65820;44.726;37.764;2022-12-05T08:25:41;4.30;;;1.65;;
75963;SDS011;65820;44.726;37.764;2022-12-05T08:26:43;3.97;;;1.50;;
75963;SDS011;65820;44.726;37.764;2022-12-05T08:27:44;4.50;;;1.70;;
75963;SDS011;65820;44.726;37.764;2022-12-05T08:28:46;3.50;;;1.42;;
75963;SDS011;65820;44.726;37.764;2022-12-05T08:29:52;4.75;;;1.73;;
75963;SDS011;65820;44.726;37.764;2022-12-05T08:30:54;5.13;;;1.80;;
75963;SDS011;65820;44.726;37.764;2022-12-05T08:31:55;6.47;;;1.67;;
75963;SDS011;65820;44.726;37.764;2022-12-05T08:32:57;3.58;;;1.30;;
75963;SDS011;65820;44.726;37.764;2022-12-05T08:33:58;3.75;;;1.50;;
75963;SDS011;65820;44.726;37.764;2022-12-05T08:35:00;5.10;;;1.90;;
75963;SDS011;65820;44.726;37.764;2022-12-05T08:36:03;3.88;;;1.50;;
75963;SDS011;65820;44.726;37.764;2022-12-05T08:37:06;4.50;;;1.70;;
75963;SDS011;65820;44.726;37.764;2022-12-05T08:38:07;4.40;;;1.70;;
75963;SDS011;65820;44.726;37.764;2022-12-05T08:39:57;3.88;;;1.65;;
75963;SDS011;65820;44.726;37.764;2022-12-05T08:40:59;3.80;;;1.40;;
75963;SDS011;65820;44.726;37.764;2022-12-05T08:42:05;4.00;;;1.30;;
75963;SDS011;65820;44.726;37.764;2022-12-05T08:43:06;3.67;;;1.52;;
75963;SDS011;65820;44.726;37.764;2022-12-05T08:44:08;5.68;;;2.05;;
75963;SDS011;65820;44.726;37.764;2022-12-05T08:50:17;4.70;;;1.90;;
75963;SDS011;65820;44.726;37.764;2022-12-05T08:51:18;5.25;;;2.25;;
75963;SDS011;65820;44.726;37.764;2022-12-05T08:53:30;4.28;;;1.65;;
75963;SDS011;65820;44.726;37.764;2022-12-05T08:55:20;3.78;;;1.58;;
75963;SDS011;65820;44.726;37.764;2022-12-05T08:56:21;5.80;;;1.80;;
75963;SDS011;65820;44.726;37.764;2022-12-05T08:57:23;5.25;;;1.77;;
75963;SDS011;65820;44.726;37.764;2022-12-05T09:06:51;4.50;;;1.73;;
75963;SDS011;65820;44.726;37.764;2022-12-05T09:10:36;4.50;;;1.40;;
75963;SDS011;65820;44.726;37.764;2022-12-05T09:11:42;4.45;;;1.42;;
75963;SDS011;65820;44.726;37.764;2022-12-05T09:12:48;4.40;;;1.83;;
75963;SDS011;65820;44.726;37.764;2022-12-05T09:13:51;4.32;;;1.27;;
75963;SDS011;65820;44.726;37.764;2022-12-05T09:18:44;4.55;;;1.83;;
75963;SDS011;65820;44.726;37.764;2022-12-05T09:20:37;4.40;;;1.77;;
75963;SDS011;65820;44.726;37.764;2022-12-05T09:21:39;6.50;;;1.73;;
75963;SDS011;65820;44.726;37.764;2022-12-05T09:22:41;4.78;;;1.92;;
75963;SDS011;65820;44.726;37.764;2022-12-05T09:23:42;4.25;;;1.60;;
75963;SDS011;65820;44.726;37.764;2022-12-05T09:24:44;3.83;;;1.60;;
75963;SDS011;65820;44.726;37.764;2022-12-05T09:25:51;4.63;;;1.63;;
75963;SDS011;65820;44.726;37.764;2022-12-05T09:26:57;3.85;;;1.60;;
75963;SDS011;65820;44.726;37.764;2022-12-05T09:27:59;4.18;;;1.60;;
75963;SDS011;65820;44.726;37.764;2022-12-05T09:29:00;5.15;;;1.60;;
75963;SDS011;65820;44.726;37.764;2022-12-05T09:30:02;4.55;;;1.63;;
75963;SDS011;65820;44.726;37.764;2022-12-05T09:32:09;6.78;;;1.70;;
75963;SDS011;65820;44.726;37.764;2022-12-05T09:33:11;5.47;;;1.88;;
75963;SDS011;65820;44.726;37.764;2022-12-05T09:35:08;3.95;;;1.52;;
75963;SDS011;65820;44.726;37.764;2022-12-05T09:36:19;4.53;;;1.92;;
75963;SDS011;65820;44.726;37.764;2022-12-05T09:42:37;5.40;;;1.67;;
75963;SDS011;65820;44.726;37.764;2022-12-05T09:46:18;4.75;;;1.35;;
75963;SDS011;65820;44.726;37.764;2022-12-05T09:47:30;4.38;;;1.23;;
75963;SDS011;65820;44.726;37.764;2022-12-05T09:48:53;4.75;;;1.70;;
75963;SDS011;65820;44.726;37.764;2022-12-05T09:49:59;3.60;;;1.33;;
75963;SDS011;65820;44.726;37.764;2022-12-05T09:51:17;4.07;;;1.48;;
75963;SDS011;65820;44.726;37.764;2022-12-05T09:52:26;4.13;;;1.40;;
75963;SDS011;65820;44.726;37.764;2022-12-05T09:53:33;3.63;;;1.38;;
75963;SDS011;65820;44.726;37.764;2022-12-05T09:54:37;4.57;;;1.60;;
75963;SDS011;65820;44.726;37.764;2022-12-05T09:56:01;3.40;;;1.38;;
75963;SDS011;65820;44.726;37.764;2022-12-05T09:58:21;5.43;;;1.80;;
75963;SDS011;65820;44.726;37.764;2022-12-05T09:59:48;3.55;;;1.23;;
75963;SDS011;65820;44.726;37.764;2022-12-05T10:00:51;4.03;;;1.52;;
75963;SDS011;65820;44.726;37.764;2022-12-05T10:04:41;4.10;;;1.23;;
75963;SDS011;65820;44.726;37.764;2022-12-05T10:11:57;4.10;;;1.23;;
75963;SDS011;65820;44.726;37.764;2022-12-05T10:20:21;4.07;;;1.27;;
75963;SDS011;65820;44.726;37.764;2022-12-05T10:21:36;3.60;;;1.35;;
75963;SDS011;65820;44.726;37.764;2022-12-05T10:32:16;3.47;;;1.00;;
75963;SDS011;65820;44.726;37.764;2022-12-05T10:33:21;3.70;;;1.77;;
75963;SDS011;65820;44.726;37.764;2022-12-05T10:35:34;4.07;;;1.70;;
75963;SDS011;65820;44.726;37.764;2022-12-05T10:36:37;2.55;;;1.30;;
75963;SDS011;65820;44.726;37.764;2022-12-05T10:37:38;3.67;;;1.48;;
75963;SDS011;65820;44.726;37.764;2022-12-05T10:38:43;3.40;;;1.27;;
75963;SDS011;65820;44.726;37.764;2022-12-05T10:48:21;3.97;;;1.13;;
75963;SDS011;65820;44.726;37.764;2022-12-05T10:49:23;4.25;;;1.55;;
75963;SDS011;65820;44.726;37.764;2022-12-05T10:50:28;4.93;;;1.55;;
75963;SDS011;65820;44.726;37.764;2022-12-05T10:51:30;5.05;;;1.40;;
75963;SDS011;65820;44.726;37.764;2022-12-05T10:57:40;3.03;;;1.33;;
75963;SDS011;65820;44.726;37.764;2022-12-05T10:58:52;3.92;;;1.33;;
75963;SDS011;65820;44.726;37.764;2022-12-05T10:59:56;5.65;;;1.60;;
75963;SDS011;65820;44.726;37.764;2022-12-05T11:01:06;3.50;;;1.33;;
75963;SDS011;65820;44.726;37.764;2022-12-05T11:02:16;3.67;;;1.40;;
75963;SDS011;65820;44.726;37.764;2022-12-05T11:03:28;4.20;;;1.50;;
75963;SDS011;65820;44.726;37.764;2022-12-05T11:04:39;4.38;;;1.42;;
75963;SDS011;65820;44.726;37.764;2022-12-05T11:05:44;4.30;;;1.15;;
75963;SDS011;65820;44.726;37.764;2022-12-05T11:06:57;5.22;;;1.60;;
75963;SDS011;65820;44.726;37.764;2022-12-05T11:08:01;3.25;;;1.08;;
75963;SDS011;65820;44.726;37.764;2022-12-05T11:19:30;3.20;;;1.15;;
75963;SDS011;65820;44.726;37.764;2022-12-05T11:20:34;7.70;;;1.30;;
75963;SDS011;65820;44.726;37.764;2022-12-05T11:21:41;3.58;;;1.17;;
75963;SDS011;65820;44.726;37.764;2022-12-05T11:37:13;2.63;;;1.15;;
75963;SDS011;65820;44.726;37.764;2022-12-05T11:38:25;3.53;;;1.30;;
75963;SDS011;65820;44.726;37.764;2022-12-05T11:56:21;3.58;;;1.55;;
75963;SDS011;65820;44.726;37.764;2022-12-05T12:36:30;4.57;;;1.70;;
75963;SDS011;65820;44.726;37.764;2022-12-05T13:01:36;5.32;;;1.80;;
75963;SDS011;65820;44.726;37.764;2022-12-05T13:02:47;4.95;;;1.80;;
75963;SDS011;65820;44.726;37.764;2022-12-05T13:03:56;6.00;;;1.92;;
75963;SDS011;65820;44.726;37.764;2022-12-05T13:07:02;4.63;;;1.90;;
75963;SDS011;65820;44.726;37.764;2022-12-05T13:08:23;5.57;;;1.80;;
75963;SDS011;65820;44.726;37.764;2022-12-05T13:09:41;4.22;;;1.80;;
75963;SDS011;65820;44.726;37.764;2022-12-05T13:10:48;6.60;;;1.90;;
75963;SDS011;65820;44.726;37.764;2022-12-05T13:20:29;3.28;;;1.30;;
75963;SDS011;65820;44.726;37.764;2022-12-05T13:21:34;5.10;;;1.65;;
75963;SDS011;65820;44.726;37.764;2022-12-05T13:22:35;3.95;;;1.48;;
75963;SDS011;65820;44.726;37.764;2022-12-05T13:23:43;4.70;;;1.20;;
75963;SDS011;65820;44.726;37.764;2022-12-05T13:24:51;3.58;;;1.23;;
75963;SDS011;65820;44.726;37.764;2022-12-05T13:25:54;5.10;;;1.63;;
75963;SDS011;65820;44.726;37.764;2022-12-05T13:26:58;5.05;;;1.30;;
75963;SDS011;65820;44.726;37.764;2022-12-05T13:28:03;4.25;;;1.40;;
75963;SDS011;65820;44.726;37.764;2022-12-05T13:29:13;3.58;;;1.20;;
75963;SDS011;65820;44.726;37.764;2022-12-05T13:30:25;4.38;;;1.20;;
75963;SDS011;65820;44.726;37.764;2022-12-05T13:31:43;3.70;;;1.20;;
75963;SDS011;65820;44.726;37.764;2022-12-05T13:32:47;4.22;;;1.40;;
75963;SDS011;65820;44.726;37.764;2022-12-05T13:33:57;4.50;;;1.38;;
75963;SDS011;65820;44.726;37.764;2022-12-05T13:36:46;4.07;;;1.38;;
75963;SDS011;65820;44.726;37.764;2022-12-05T13:38:14;4.35;;;1.42;;
75963;SDS011;65820;44.726;37.764;2022-12-05T13:39:52;4.72;;;1.13;;
75963;SDS011;65820;44.726;37.764;2022-12-05T13:41:26;5.75;;;1.40;;
75963;SDS011;65820;44.726;37.764;2022-12-05T13:43:01;8.60;;;1.50;;
75963;SDS011;65820;44.726;37.764;2022-12-05T13:44:10;4.18;;;1.05;;
75963;SDS011;65820;44.726;37.764;2022-12-05T13:45:23;4.63;;;1.45;;
75963;SDS011;65820;44.726;37.764;2022-12-05T13:46:39;5.63;;;1.50;;
75963;SDS011;65820;44.726;37.764;2022-12-05T13:49:00;4.80;;;1.55;;
75963;SDS011;65820;44.726;37.764;2022-12-05T13:50:08;6.85;;;1.70;;
75963;SDS011;65820;44.726;37.764;2022-12-05T13:56:51;6.78;;;1.60;;
75963;SDS011;65820;44.726;37.764;2022-12-05T13:57:59;4.55;;;1.50;;
75963;SDS011;65820;44.726;37.764;2022-12-05T13:59:06;7.38;;;1.60;;
75963;SDS011;65820;44.726;37.764;2022-12-05T14:04:47;5.95;;;1.35;;
75963;SDS011;65820;44.726;37.764;2022-12-05T14:05:53;4.45;;;1.50;;
75963;SDS011;65820;44.726;37.764;2022-12-05T14:06:55;4.20;;;1.58;;
75963;SDS011;65820;44.726;37.764;2022-12-05T14:07:58;3.35;;;1.27;;
75963;SDS011;65820;44.726;37.764;2022-12-05T14:09:09;5.47;;;1.40;;
75963;SDS011;65820;44.726;37.764;2022-12-05T14:14:52;4.00;;;1.40;;
75963;SDS011;65820;44.726;37.764;2022-12-05T14:18:41;6.47;;;1.15;;
75963;SDS011;65820;44.726;37.764;2022-12-05T14:19:51;4.22;;;1.40;;
75963;SDS011;65820;44.726;37.764;2022-12-05T14:25:00;3.83;;;1.25;;
75963;SDS011;65820;44.726;37.764;2022-12-05T14:27:22;6.75;;;1.40;;
75963;SDS011;65820;44.726;37.764;2022-12-05T14:32:35;4.80;;;1.60;;
75963;SDS011;65820;44.726;37.764;2022-12-05T14:33:40;5.43;;;1.40;;
75963;SDS011;65820;44.726;37.764;2022-12-05T14:35:27;7.57;;;1.60;;
75963;SDS011;65820;44.726;37.764;2022-12-05T14:36:17;3.85;;;1.60;;
75963;SDS011;65820;44.726;37.764;2022-12-05T14:37:36;5.55;;;1.58;;
75963;SDS011;65820;44.726;37.764;2022-12-05T14:38:42;4.97;;;1.27;;
75963;SDS011;65820;44.726;37.764;2022-12-05T14:39:45;6.38;;;1.38;;
75963;SDS011;65820;44.726;37.764;2022-12-05T14:40:51;6.13;;;1.85;;
75963;SDS011;65820;44.726;37.764;2022-12-05T14:41:56;4.82;;;1.30;;
75963;SDS011;65820;44.726;37.764;2022-12-05T14:44:32;5.43;;;1.30;;
75963;SDS011;65820;44.726;37.764;2022-12-05T14:45:35;6.45;;;1.60;;
75963;SDS011;65820;44.726;37.764;2022-12-05T14:46:38;3.92;;;1.60;;
75963;SDS011;65820;44.726;37.764;2022-12-05T14:47:49;4.63;;;1.30;;
75963;SDS011;65820;44.726;37.764;2022-12-05T14:48:52;4.63;;;1.35;;
75963;SDS011;65820;44.726;37.764;2022-12-05T14:51:01;4.63;;;1.63;;
75963;SDS011;65820;44.726;37.764;2022-12-05T14:52:31;3.22;;;1.35;;
75963;SDS011;65820;44.726;37.764;2022-12-05T14:53:34;8.75;;;1.90;;
75963;SDS011;65820;44.726;37.764;2022-12-05T14:54:38;6.93;;;1.63;;
75963;SDS011;65820;44.726;37.764;2022-12-05T14:55:44;4.70;;;1.60;;
75963;SDS011;65820;44.726;37.764;2022-12-05T14:56:48;3.85;;;1.67;;
75963;SDS011;65820;44.726;37.764;2022-12-05T14:57:55;6.53;;;1.83;;
75963;SDS011;65820;44.726;37.764;2022-12-05T15:00:06;8.88;;;2.00;;
75963;SDS011;65820;44.726;37.764;2022-12-05T15:02:53;6.68;;;2.08;;
75963;SDS011;65820;44.726;37.764;2022-12-05T15:05:31;6.55;;;1.98;;
75963;SDS011;65820;44.726;37.764;2022-12-05T15:06:45;5.97;;;2.00;;
75963;SDS011;65820;44.726;37.764;2022-12-05T15:07:54;9.23;;;2.00;;
75963;SDS011;65820;44.726;37.764;2022-12-05T15:08:58;4.78;;;1.65;;
75963;SDS011;65820;44.726;37.764;2022-12-05T15:11:28;5.35;;;1.60;;
75963;SDS011;65820;44.726;37.764;2022-12-05T15:13:47;4.50;;;1.63;;
75963;SDS011;65820;44.726;37.764;2022-12-05T15:15:39;6.38;;;1.85;;
75963;SDS011;65820;44.726;37.764;2022-12-05T15:16:25;5.68;;;1.88;;
75963;SDS011;65820;44.726;37.764;2022-12-05T15:17:34;4.68;;;1.85;;
75963;SDS011;65820;44.726;37.764;2022-12-05T15:18:39;4.22;;;1.42;;
75963;SDS011;65820;44.726;37.764;2022-12-05T15:19:57;5.13;;;1.70;;
75963;SDS011;65820;44.726;37.764;2022-12-05T15:21:17;5.68;;;1.88;;
75963;SDS011;65820;44.726;37.764;2022-12-05T15:22:33;5.20;;;1.65;;
75963;SDS011;65820;44.726;37.764;2022-12-05T15:23:44;5.88;;;1.83;;
75963;SDS011;65820;44.726;37.764;2022-12-05T15:24:48;6.85;;;2.70;;
75963;SDS011;65820;44.726;37.764;2022-12-05T15:25:50;8.48;;;1.67;;
75963;SDS011;65820;44.726;37.764;2022-12-05T15:26:54;4.35;;;1.55;;
75963;SDS011;65820;44.726;37.764;2022-12-05T15:27:58;5.35;;;1.75;;
75963;SDS011;65820;44.726;37.764;2022-12-05T15:30:24;19.42;;;2.97;;
75963;SDS011;65820;44.726;37.764;2022-12-05T15:31:27;37.88;;;3.60;;
75963;SDS011;65820;44.726;37.764;2022-12-05T15:32:31;54.40;;;4.32;;
75963;SDS011;65820;44.726;37.764;2022-12-05T15:33:33;39.92;;;5.47;;
75963;SDS011;65820;44.726;37.764;2022-12-05T15:35:57;103.13;;;7.20;;
75963;SDS011;65820;44.726;37.764;2022-12-05T15:37:09;60.05;;;5.30;;
75963;SDS011;65820;44.726;37.764;2022-12-05T15:38:24;44.10;;;4.65;;
75963;SDS011;65820;44.726;37.764;2022-12-05T15:39:29;34.08;;;3.50;;
75963;SDS011;65820;44.726;37.764;2022-12-05T15:40:51;26.88;;;2.67;;
75963;SDS011;65820;44.726;37.764;2022-12-05T15:41:53;24.77;;;2.45;;
75963;SDS011;65820;44.726;37.764;2022-12-05T15:42:57;25.25;;;3.22;;
75963;SDS011;65820;44.726;37.764;2022-12-05T15:43:59;25.55;;;3.05;;
75963;SDS011;65820;44.726;37.764;2022-12-05T15:46:18;18.02;;;2.90;;
75963;SDS011;65820;44.726;37.764;2022-12-05T15:47:24;18.23;;;2.28;;
75963;SDS011;65820;44.726;37.764;2022-12-05T15:48:25;21.95;;;3.58;;
75963;SDS011;65820;44.726;37.764;2022-12-05T15:49:27;15.30;;;2.72;;
75963;SDS011;65820;44.726;37.764;2022-12-05T15:51:36;24.98;;;2.60;;
75963;SDS011;65820;44.726;37.764;2022-12-05T15:53:59;18.45;;;2.60;;
75963;SDS011;65820;44.726;37.764;2022-12-05T15:55:09;19.13;;;2.22;;
75963;SDS011;65820;44.726;37.764;2022-12-05T15:56:19;19.50;;;2.92;;
75963;SDS011;65820;44.726;37.764;2022-12-05T15:57:37;18.55;;;2.20;;
75963;SDS011;65820;44.726;37.764;2022-12-05T15:59:29;17.17;;;2.72;;
75963;SDS011;65820;44.726;37.764;2022-12-05T16:00:33;16.63;;;2.25;;
75963;SDS011;65820;44.726;37.764;2022-12-05T16:01:50;16.58;;;2.63;;
75963;SDS011;65820;44.726;37.764;2022-12-05T16:02:59;13.48;;;2.58;;
75963;SDS011;65820;44.726;37.764;2022-12-05T16:04:14;8.77;;;1.80;;
75963;SDS011;65820;44.726;37.764;2022-12-05T16:06:53;10.52;;;1.95;;
75963;SDS011;65820;44.726;37.764;2022-12-05T16:07:56;10.80;;;2.22;;
75963;SDS011;65820;44.726;37.764;2022-12-05T16:08:58;11.07;;;1.80;;
75963;SDS011;65820;44.726;37.764;2022-12-05T16:10:00;18.48;;;2.40;;
75963;SDS011;65820;44.726;37.764;2022-12-05T16:11:08;14.85;;;2.20;;
75963;SDS011;65820;44.726;37.764;2022-12-05T16:12:52;9.68;;;2.17;;
75963;SDS011;65820;44.726;37.764;2022-12-05T16:13:42;12.52;;;2.22;;
75963;SDS011;65820;44.726;37.764;2022-12-05T16:15:47;9.85;;;1.60;;
75963;SDS011;65820;44.726;37.764;2022-12-05T16:16:56;10.13;;;2.53;;
75963;SDS011;65820;44.726;37.764;2022-12-05T16:18:03;10.02;;;2.10;;
75963;SDS011;65820;44.726;37.764;2022-12-05T16:22:48;7.15;;;1.40;;
75963;SDS011;65820;44.726;37.764;2022-12-05T16:23:58;18.13;;;2.03;;
75963;SDS011;65820;44.726;37.764;2022-12-05T16:25:02;9.52;;;1.73;;
75963;SDS011;65820;44.726;37.764;2022-12-05T16:26:19;9.00;;;2.35;;
75963;SDS011;65820;44.726;37.764;2022-12-05T16:30:51;9.13;;;2.17;;
75963;SDS011;65820;44.726;37.764;2022-12-05T16:31:58;9.68;;;2.20;;
75963;SDS011;65820;44.726;37.764;2022-12-05T16:43:03;14.20;;;2.10;;
75963;SDS011;65820;44.726;37.764;2022-12-05T16:45:39;12.25;;;1.85;;
75963;SDS011;65820;44.726;37.764;2022-12-05T16:46:43;10.32;;;1.90;;
75963;SDS011;65820;44.726;37.764;2022-12-05T16:50:33;11.05;;;1.77;;
75963;SDS011;65820;44.726;37.764;2022-12-05T16:51:42;9.77;;;1.80;;
75963;SDS011;65820;44.726;37.764;2022-12-05T16:52:45;14.60;;;2.10;;
75963;SDS011;65820;44.726;37.764;2022-12-05T16:53:50;10.07;;;1.92;;
75963;SDS011;65820;44.726;37.764;2022-12-05T16:54:57;8.95;;;1.73;;
75963;SDS011;65820;44.726;37.764;2022-12-05T16:55:59;10.18;;;1.95;;
75963;SDS011;65820;44.726;37.764;2022-12-05T16:57:01;11.45;;;1.60;;
75963;SDS011;65820;44.726;37.764;2022-12-05T16:58:04;11.65;;;1.88;;
75963;SDS011;65820;44.726;37.764;2022-12-05T16:59:06;13.70;;;2.42;;
75963;SDS011;65820;44.726;37.764;2022-12-05T17:00:17;21.77;;;1.85;;
75963;SDS011;65820;44.726;37.764;2022-12-05T17:01:23;11.38;;;1.95;;
75963;SDS011;65820;44.726;37.764;2022-12-05T17:02:25;11.85;;;1.73;;
75963;SDS011;65820;44.726;37.764;2022-12-05T17:03:27;12.32;;;1.77;;